Wien — DB8145 — position and weather

sailwx.info

Track history (hours):
 
Tides and Currents Weather Stations Pressure Air Temp Water Temp Dewpoint Dewpoint Depression Visibility Wind Speed Wind Dir Waves Ship Positions

Wien

Last reported at 2017-Dec-10 23:22 UTC. Time now 2017-Dec-14 00:44 UTC.
Position N 48°11' E 016°28'.

Length 270 m; draft 0.2 m.

Type: Ship. MMSI: 211644170.

Date/timePositionNaut miles runAvg speedWind from/ knotsBaromVisibWave heightAir tempDewpointWater temp
2017-Dec-10 23:22N 48°11' E 016°28'1 3.0
2017-Dec-10 23:01N 48°11' E 016°29'0 0.4
2017-Dec-10 22:24N 48°10' E 016°29'12 2.1
2017-Dec-10 16:23N 48°07' E 016°47'4 2.2
2017-Dec-10 14:30N 48°08' E 016°53'1 2.1
2017-Dec-10 14:01N 48°09' E 016°54'1 1.9
2017-Dec-10 13:29N 48°09' E 016°56'1 2.1
2017-Dec-10 12:59N 48°10' E 016°57'1 1.5
2017-Dec-10 12:30N 48°10' E 016°57'1 2.0
2017-Dec-10 12:00N 48°10' E 016°59'1 2.5
2017-Dec-10 11:30N 48°09' E 017°00'1 2.3
2017-Dec-10 11:00N 48°09' E 017°01'1 2.0
2017-Dec-10 10:30N 48°09' E 017°03'1 2.1
2017-Dec-10 10:01N 48°09' E 017°05'1 2.4
2017-Dec-10 09:30N 48°08' E 017°06'1 1.7
2017-Dec-10 09:00N 48°08' E 017°08'1 2.8
2017-Dec-10 08:31N 48°07' E 017°09'2 4.0
2017-Dec-10 08:00N 48°05' E 017°09'3 5.8
2017-Dec-10 07:30N 48°03' E 017°12'3 6.2
2017-Dec-10 07:00N 48°01' E 017°16'3 5.5
2017-Dec-10 06:30N 48°00' E 017°20'3 6.6
2017-Dec-10 06:00N 47°58' E 017°24'3 6.4
2017-Dec-10 05:30N 47°56' E 017°27'3 6.5
2017-Dec-10 05:00N 47°54' E 017°31'1 2.7
2017-Dec-10 04:27N 47°53' E 017°32'1 1.6
2017-Dec-10 03:59N 47°52' E 017°33'3 5.9
2017-Dec-10 03:28N 47°50' E 017°36'2 4.7
2017-Dec-10 02:59N 47°48' E 017°38'9 3.5
2017-Dec-10 00:23N 47°44' E 017°50'  
Track history (hours):
 
Tides and Currents Weather Stations Pressure Air Temp Water Temp Dewpoint Dewpoint Depression Visibility Wind Speed Wind Dir Waves Ship Positions

Wien

Last reported at 2017-Dec-10 23:22 UTC. Time now 2017-Dec-14 00:44 UTC.
Position N 48°11' E 016°28'.

Length 270 m; draft 0.2 m.

Type: Ship. MMSI: 211644170.

Date/timePositionNaut miles runAvg speedWind from/ knotsBaromVisibWave heightAir tempDewpointWater temp
2017-Dec-10 23:22N 48°11' E 016°28'1 3.0
2017-Dec-10 23:01N 48°11' E 016°29'0 0.4
2017-Dec-10 22:24N 48°10' E 016°29'12 2.1
2017-Dec-10 16:23N 48°07' E 016°47'4 2.2
2017-Dec-10 14:30N 48°08' E 016°53'1 2.1
2017-Dec-10 14:01N 48°09' E 016°54'1 1.9
2017-Dec-10 13:29N 48°09' E 016°56'1 2.1
2017-Dec-10 12:59N 48°10' E 016°57'1 1.5
2017-Dec-10 12:30N 48°10' E 016°57'1 2.0
2017-Dec-10 12:00N 48°10' E 016°59'1 2.5
2017-Dec-10 11:30N 48°09' E 017°00'1 2.3
2017-Dec-10 11:00N 48°09' E 017°01'1 2.0
2017-Dec-10 10:30N 48°09' E 017°03'1 2.1
2017-Dec-10 10:01N 48°09' E 017°05'1 2.4
2017-Dec-10 09:30N 48°08' E 017°06'1 1.7
2017-Dec-10 09:00N 48°08' E 017°08'1 2.8
2017-Dec-10 08:31N 48°07' E 017°09'2 4.0
2017-Dec-10 08:00N 48°05' E 017°09'3 5.8
2017-Dec-10 07:30N 48°03' E 017°12'3 6.2
2017-Dec-10 07:00N 48°01' E 017°16'3 5.5
2017-Dec-10 06:30N 48°00' E 017°20'3 6.6
2017-Dec-10 06:00N 47°58' E 017°24'3 6.4
2017-Dec-10 05:30N 47°56' E 017°27'3 6.5
2017-Dec-10 05:00N 47°54' E 017°31'1 2.7
2017-Dec-10 04:27N 47°53' E 017°32'1 1.6
2017-Dec-10 03:59N 47°52' E 017°33'3 5.9
2017-Dec-10 03:28N 47°50' E 017°36'2 4.7
2017-Dec-10 02:59N 47°48' E 017°38'9 3.5
2017-Dec-10 00:23N 47°44' E 017°50'  

Dump ship's entire track history